Time;durP1;ratioP1;P1;durP2;ratioP2;P2;SDS_P1;SDS_P2;PMS_P1;PMS_P2;Temp;Humidity;BMP_temperature;BMP_pressure;BME280_temperature;BME280_humidity;BME280_pressure;Samples;Min_cycle;Max_cycle;Signal;HPM_P1;HPM_P2
2022/06/15 00:02:25;;;;;;;6.80;5.15;;;12.20;99.90;;;;;;5017136;28;20090;-75
2022/06/15 00:04:53;;;;;;;9.80;5.47;;;12.20;99.90;;;;;;5019553;28;20045;-76
2022/06/15 00:07:19;;;;;;;9.27;5.57;;;12.20;99.90;;;;;;5011747;28;20041;-76
2022/06/15 00:09:47;;;;;;;8.13;5.45;;;12.10;99.90;;;;;;5014649;28;20040;-76
2022/06/15 00:12:14;;;;;;;8.65;5.53;;;12.10;99.90;;;;;;5010055;28;20167;-76
2022/06/15 00:14:40;;;;;;;6.78;5.40;;;12.10;99.90;;;;;;5002364;28;20048;-75
2022/06/15 00:17:05;;;;;;;6.47;5.15;;;12.10;99.90;;;;;;5024116;28;20034;-75
2022/06/15 00:19:31;;;;;;;8.82;5.15;;;12.10;99.90;;;;;;4994769;28;20056;-76
2022/06/15 00:21:57;;;;;;;10.55;5.28;;;12.00;99.90;;;;;;5007313;28;20033;-76
2022/06/15 00:24:23;;;;;;;8.07;5.10;;;12.00;99.90;;;;;;5006998;28;20056;-76
2022/06/15 00:26:49;;;;;;;9.48;5.60;;;12.00;99.90;;;;;;5006110;28;20049;-76
2022/06/15 00:29:15;;;;;;;10.05;5.07;;;12.00;99.90;;;;;;5026569;28;20045;-76
2022/06/15 00:31:41;;;;;;;9.18;5.85;;;11.90;99.90;;;;;;5016996;28;20049;-76
2022/06/15 00:34:07;;;;;;;9.23;6.30;;;11.90;99.90;;;;;;5030580;28;20076;-76
2022/06/15 00:36:33;;;;;;;6.65;5.55;;;11.90;99.90;;;;;;5012357;28;20081;-76
2022/06/15 00:39:00;;;;;;;7.38;5.43;;;11.80;99.90;;;;;;5009040;28;20088;-76
2022/06/15 00:41:28;;;;;;;7.90;6.10;;;11.80;99.90;;;;;;5006570;28;20369;-76
2022/06/15 00:44:25;;;;;;;9.57;6.22;;;11.70;99.90;;;;;;5016298;28;20498;-76
2022/06/15 00:47:02;;;;;;;8.70;5.75;;;11.70;99.90;;;;;;5033694;28;20052;-76
2022/06/15 00:49:51;;;;;;;9.80;5.63;;;11.70;99.90;;;;;;5026680;28;20137;-75
2022/06/15 00:52:35;;;;;;;9.90;5.97;;;11.70;99.90;;;;;;5010115;28;20422;-76
2022/06/15 00:55:06;;;;;;;8.77;5.78;;;11.70;99.90;;;;;;5020534;28;20038;-76
2022/06/15 00:57:32;;;;;;;13.43;5.93;;;11.60;99.90;;;;;;5008848;28;20115;-76
2022/06/15 01:00:01;;;;;;;10.27;5.78;;;11.50;99.90;;;;;;5001173;28;20140;-76
2022/06/15 01:02:27;;;;;;;12.38;5.70;;;11.50;99.90;;;;;;5004526;28;20384;-76
2022/06/15 01:05:05;;;;;;;8.75;6.00;;;11.50;99.90;;;;;;5034921;28;20613;-76
2022/06/15 01:07:48;;;;;;;8.48;6.15;;;11.50;99.90;;;;;;5018382;28;20048;-76
2022/06/15 01:10:28;;;;;;;9.38;5.78;;;11.50;99.90;;;;;;5023641;28;20068;-75
2022/06/15 01:13:07;;;;;;;7.78;5.78;;;11.50;99.90;;;;;;5024674;28;20107;-76
2022/06/15 01:15:58;;;;;;;12.32;5.75;;;11.40;99.90;;;;;;5030443;28;20034;-76
2022/06/15 01:18:55;;;;;;;9.88;6.68;;;11.40;99.90;;;;;;5018426;28;20048;-74
2022/06/15 01:21:35;;;;;;;11.93;6.75;;;11.40;99.90;;;;;;5030839;28;20034;-76
2022/06/15 01:24:29;;;;;;;10.38;6.90;;;11.30;99.90;;;;;;5012888;28;20045;-75
2022/06/15 01:27:16;;;;;;;9.48;6.85;;;11.30;99.90;;;;;;5004927;28;20066;-75
2022/06/15 01:30:04;;;;;;;11.65;7.15;;;11.30;99.90;;;;;;5019587;28;20120;-75
2022/06/15 01:33:00;;;;;;;10.70;6.50;;;11.30;99.90;;;;;;5006688;28;20058;-76
2022/06/15 01:35:50;;;;;;;19.05;7.72;;;11.20;99.90;;;;;;5028350;28;20040;-76
2022/06/15 01:38:30;;;;;;;9.70;7.80;;;11.10;99.90;;;;;;5021339;28;20503;-76
2022/06/15 01:41:26;;;;;;;11.07;7.25;;;11.10;99.90;;;;;;5013583;28;20038;-76
2022/06/15 01:44:06;;;;;;;9.25;6.63;;;11.10;99.90;;;;;;5008906;28;20037;-75
2022/06/15 01:46:43;;;;;;;10.43;7.43;;;11.00;99.90;;;;;;5035021;28;20041;-76
2022/06/15 01:49:15;;;;;;;10.23;7.10;;;11.00;99.90;;;;;;5006848;28;20124;-75
2022/06/15 01:51:43;;;;;;;13.27;7.63;;;11.00;99.90;;;;;;5018777;28;20045;-76
2022/06/15 01:54:15;;;;;;;9.45;7.20;;;11.00;99.90;;;;;;4987572;28;20499;-76
2022/06/15 01:56:49;;;;;;;10.82;7.32;;;11.00;99.90;;;;;;5030859;28;20487;-75
2022/06/15 01:59:50;;;;;;;13.65;8.07;;;10.90;99.90;;;;;;5031324;28;20045;-76
2022/06/15 02:02:38;;;;;;;12.07;7.88;;;10.90;99.90;;;;;;5015686;28;20037;-76
2022/06/15 02:05:14;;;;;;;11.70;7.80;;;10.90;99.90;;;;;;5031347;28;20077;-76
2022/06/15 02:07:49;;;;;;;10.63;7.50;;;10.90;99.90;;;;;;5015461;28;20124;-77
2022/06/15 02:10:47;;;;;;;11.40;7.47;;;10.80;99.90;;;;;;5006014;28;20037;-75
2022/06/15 02:13:27;;;;;;;10.25;8.10;;;10.80;99.90;;;;;;5020484;28;20033;-75
2022/06/15 02:16:03;;;;;;;13.02;7.65;;;10.80;99.90;;;;;;5031978;28;20053;-75
2022/06/15 02:18:35;;;;;;;15.52;7.93;;;10.80;99.90;;;;;;5014325;28;20045;-75
2022/06/15 02:21:05;;;;;;;10.48;8.10;;;10.80;99.90;;;;;;5009911;28;20312;-76
2022/06/15 02:23:33;;;;;;;13.20;7.95;;;10.80;99.90;;;;;;5023860;28;20042;-76
2022/06/15 02:26:01;;;;;;;12.25;7.68;;;10.80;99.90;;;;;;5029401;28;20042;-76
2022/06/15 02:29:11;;;;;;;9.75;7.25;;;10.80;99.90;;;;;;5027010;28;20483;-75
2022/06/15 02:31:41;;;;;;;13.45;7.93;;;10.70;99.90;;;;;;5028183;28;20575;-76
2022/06/15 02:34:07;;;;;;;12.60;8.45;;;10.70;99.90;;;;;;5027699;28;20044;-76
2022/06/15 02:36:33;;;;;;;15.43;8.38;;;10.60;99.90;;;;;;5011897;28;20045;-75
2022/06/15 02:39:02;;;;;;;11.48;8.30;;;10.60;99.90;;;;;;5024519;28;20045;-75
2022/06/15 02:41:28;;;;;;;14.82;8.35;;;10.60;99.90;;;;;;5027115;28;20071;-75
2022/06/15 02:43:56;;;;;;;14.02;8.38;;;10.60;99.90;;;;;;4992906;28;20119;-75
2022/06/15 02:46:24;;;;;;;13.43;8.88;;;10.60;99.90;;;;;;5029902;28;20036;-75
2022/06/15 02:48:51;;;;;;;11.63;8.75;;;10.50;99.90;;;;;;5044668;28;20049;-76
2022/06/15 02:51:37;;;;;;;14.15;9.25;;;10.50;99.90;;;;;;5038592;28;20045;-76
2022/06/15 02:54:30;;;;;;;13.77;8.95;;;10.50;99.90;;;;;;5031151;28;20490;-75
2022/06/15 02:56:56;;;;;;;13.55;9.55;;;10.50;99.90;;;;;;5030938;28;20577;-75
2022/06/15 02:59:22;;;;;;;12.52;8.68;;;10.50;99.90;;;;;;5019863;28;20041;-75
2022/06/15 03:01:48;;;;;;;13.27;9.25;;;10.40;99.90;;;;;;5004288;28;20139;-76
2022/06/15 03:04:14;;;;;;;11.60;8.48;;;10.40;99.90;;;;;;5035150;28;20036;-75
2022/06/15 03:06:40;;;;;;;10.90;8.48;;;10.40;99.90;;;;;;4996865;28;20049;-75
2022/06/15 03:09:05;;;;;;;13.13;8.43;;;10.40;99.90;;;;;;5007422;28;20128;-75
2022/06/15 03:11:31;;;;;;;12.27;9.05;;;10.40;99.90;;;;;;5010850;28;20072;-75
2022/06/15 03:14:00;;;;;;;13.07;8.65;;;10.30;99.90;;;;;;5027591;28;20029;-75
2022/06/15 03:16:25;;;;;;;12.13;8.30;;;10.30;99.90;;;;;;5025331;28;20410;-75
2022/06/15 03:18:51;;;;;;;13.43;9.57;;;10.30;99.90;;;;;;5008751;28;20041;-75
2022/06/15 03:21:17;;;;;;;13.52;8.70;;;10.30;99.90;;;;;;4991503;28;20537;-75
2022/06/15 03:23:43;;;;;;;14.88;9.57;;;10.30;99.90;;;;;;5009098;28;20041;-75
2022/06/15 03:26:09;;;;;;;15.68;9.23;;;10.30;99.90;;;;;;5014835;28;20508;-75
2022/06/15 03:28:35;;;;;;;14.48;9.75;;;10.30;99.90;;;;;;5016524;28;20060;-76
2022/06/15 03:31:01;;;;;;;11.57;8.63;;;10.30;99.90;;;;;;5016655;28;20064;-76
2022/06/15 03:33:28;;;;;;;15.10;9.43;;;10.30;99.90;;;;;;5004059;28;20042;-76
2022/06/15 03:35:54;;;;;;;12.30;8.40;;;10.30;99.90;;;;;;5016726;28;20092;-76
2022/06/15 03:38:20;;;;;;;14.95;9.00;;;10.30;99.90;;;;;;5006585;28;20478;-76
2022/06/15 03:40:47;;;;;;;14.00;9.38;;;10.30;99.90;;;;;;5025642;28;20128;-76
2022/06/15 03:43:14;;;;;;;15.40;8.48;;;10.30;99.90;;;;;;5022216;28;20084;-76
2022/06/15 03:45:42;;;;;;;13.93;9.63;;;10.30;99.90;;;;;;4991086;28;20120;-76
2022/06/15 03:48:09;;;;;;;15.88;9.43;;;10.30;99.90;;;;;;5015565;28;20069;-76
2022/06/15 03:50:36;;;;;;;15.88;10.25;;;10.30;99.90;;;;;;5007851;28;20049;-76
2022/06/15 03:53:03;;;;;;;16.63;10.15;;;10.30;99.90;;;;;;5036144;28;20124;-75
2022/06/15 03:55:29;;;;;;;12.13;8.52;;;10.30;99.90;;;;;;5010501;28;20442;-75
2022/06/15 03:57:56;;;;;;;12.55;9.48;;;10.30;99.90;;;;;;5015992;28;20068;-76
2022/06/15 04:00:23;;;;;;;11.82;9.40;;;10.30;99.90;;;;;;5016998;28;20129;-76
2022/06/15 04:02:50;;;;;;;13.75;9.18;;;10.30;99.90;;;;;;5029609;28;20398;-77
2022/06/15 04:05:18;;;;;;;16.20;10.32;;;10.30;99.90;;;;;;5008086;28;20037;-76
2022/06/15 04:10:29;;;;;;;13.80;9.25;;;10.30;99.90;;;;;;5030347;28;20456;-76
2022/06/15 04:12:55;;;;;;;13.95;9.20;;;10.40;99.90;;;;;;5004871;28;20116;-77
2022/06/15 04:15:20;;;;;;;12.52;9.75;;;10.40;99.90;;;;;;4995606;28;20040;-75
2022/06/15 04:17:46;;;;;;;13.75;9.77;;;10.40;99.90;;;;;;4986641;28;20406;-76
2022/06/15 04:20:33;;;;;;;14.15;8.70;;;10.40;99.90;;;;;;5030330;28;20120;-76
2022/06/15 04:23:01;;;;;;;13.98;8.80;;;10.40;99.90;;;;;;5001628;28;20454;-76
2022/06/15 04:25:28;;;;;;;16.50;10.25;;;10.50;99.90;;;;;;4998651;28;20041;-76
2022/06/15 04:27:55;;;;;;;15.25;10.60;;;10.50;99.90;;;;;;5008435;28;20045;-76
2022/06/15 04:30:20;;;;;;;17.45;10.25;;;10.50;99.90;;;;;;5029812;28;20041;-76
2022/06/15 04:32:48;;;;;;;14.75;9.50;;;10.50;99.90;;;;;;5027948;28;20054;-76
2022/06/15 04:35:14;;;;;;;14.65;9.68;;;10.60;99.90;;;;;;4995072;28;20043;-76
2022/06/15 04:37:40;;;;;;;14.90;10.63;;;10.60;99.90;;;;;;5001777;28;20450;-76
2022/06/15 04:40:06;;;;;;;16.00;10.38;;;10.60;99.90;;;;;;4989355;28;22111;-76
2022/06/15 04:42:32;;;;;;;15.38;9.57;;;10.60;99.90;;;;;;5029986;28;20038;-77
2022/06/15 04:44:58;;;;;;;13.18;9.75;;;10.70;99.90;;;;;;5006240;28;20542;-76
2022/06/15 04:47:23;;;;;;;14.85;9.95;;;10.70;99.90;;;;;;5019097;28;20037;-75
2022/06/15 04:49:49;;;;;;;14.70;9.63;;;10.70;99.90;;;;;;4981839;28;20562;-76
2022/06/15 04:52:15;;;;;;;21.95;10.15;;;10.80;99.90;;;;;;5004464;28;20037;-75
2022/06/15 04:54:41;;;;;;;14.52;10.00;;;10.80;99.90;;;;;;4998618;28;20042;-75
2022/06/15 04:57:06;;;;;;;16.60;10.82;;;10.80;99.90;;;;;;5016149;28;20044;-76
2022/06/15 04:59:32;;;;;;;15.63;10.13;;;10.90;99.90;;;;;;5021447;28;20506;-76
2022/06/15 05:01:58;;;;;;;14.23;9.75;;;10.90;99.90;;;;;;4997485;28;20026;-77
2022/06/15 05:04:25;;;;;;;14.10;10.18;;;11.00;99.90;;;;;;4995196;28;20038;-73
2022/06/15 05:06:52;;;;;;;17.58;11.10;;;11.00;99.90;;;;;;5018306;28;20045;-75
2022/06/15 05:09:18;;;;;;;14.38;9.98;;;11.10;99.90;;;;;;5013389;28;20135;-76
2022/06/15 05:11:44;;;;;;;16.58;10.48;;;11.10;99.90;;;;;;4977275;28;20704;-76
2022/06/15 05:14:10;;;;;;;15.70;9.80;;;11.10;99.90;;;;;;5017358;28;20406;-75
2022/06/15 05:16:37;;;;;;;16.88;10.35;;;11.20;99.90;;;;;;5018897;28;20428;-76
2022/06/15 05:19:03;;;;;;;15.30;10.32;;;11.20;99.90;;;;;;5012309;28;20509;-75
2022/06/15 05:21:29;;;;;;;17.73;10.93;;;11.30;99.90;;;;;;5032046;28;20117;-75
2022/06/15 05:23:55;;;;;;;15.68;10.23;;;11.30;99.90;;;;;;5005754;28;20124;-76
2022/06/15 05:26:24;;;;;;;14.90;10.38;;;11.40;99.90;;;;;;5027682;28;20045;-76
2022/06/15 05:28:51;;;;;;;15.77;10.60;;;11.40;99.90;;;;;;5018118;28;20072;-76
2022/06/15 05:31:20;;;;;;;18.52;11.52;;;11.50;99.90;;;;;;5014702;28;20081;-75
2022/06/15 05:33:49;;;;;;;15.55;10.55;;;11.60;99.90;;;;;;5010046;28;20071;-75
2022/06/15 05:36:16;;;;;;;19.35;10.82;;;11.70;99.90;;;;;;5033870;28;20113;-76
2022/06/15 05:38:43;;;;;;;15.82;10.50;;;11.80;99.90;;;;;;5017963;28;20042;-75
2022/06/15 05:41:09;;;;;;;17.55;10.95;;;11.80;99.90;;;;;;5011087;28;20119;-76
2022/06/15 05:43:55;;;;;;;22.27;11.05;;;11.90;99.90;;;;;;5020837;28;20049;-75
2022/06/15 05:46:40;;;;;;;18.73;10.68;;;12.00;99.90;;;;;;5001731;28;20108;-75
2022/06/15 05:49:07;;;;;;;15.60;9.67;;;12.10;99.90;;;;;;5025733;28;20033;-75
2022/06/15 05:51:33;;;;;;;15.38;10.10;;;12.20;99.90;;;;;;5031241;28;20301;-76
2022/06/15 05:53:59;;;;;;;17.30;10.57;;;12.30;99.90;;;;;;5005857;28;20029;-75
2022/06/15 05:56:27;;;;;;;16.25;10.18;;;12.40;99.90;;;;;;5017787;28;20436;-76
2022/06/15 05:58:53;;;;;;;19.25;10.77;;;12.50;99.90;;;;;;5013621;28;20038;-75
2022/06/15 06:01:30;;;;;;;17.63;10.75;;;12.60;99.90;;;;;;5014220;28;20041;-75
2022/06/15 06:04:00;;;;;;;16.55;10.10;;;12.70;99.90;;;;;;5022364;28;20119;-75
2022/06/15 06:06:27;;;;;;;15.95;9.95;;;12.80;99.90;;;;;;5017055;28;20487;-76
2022/06/15 06:08:53;;;;;;;16.95;10.55;;;12.90;99.90;;;;;;5010859;28;20574;-75
2022/06/15 06:11:20;;;;;;;12.35;9.38;;;13.00;99.90;;;;;;5010471;28;20037;-75
2022/06/15 06:13:46;;;;;;;13.82;10.10;;;13.10;99.90;;;;;;5011771;28;20041;-75
2022/06/15 06:16:12;;;;;;;17.23;10.05;;;13.20;99.90;;;;;;5030722;28;20045;-76
2022/06/15 06:18:41;;;;;;;15.27;9.60;;;13.30;99.90;;;;;;5000046;28;20041;-75
2022/06/15 06:21:11;;;;;;;14.30;9.63;;;13.40;99.90;;;;;;5008551;28;20033;-75
2022/06/15 06:23:39;;;;;;;14.82;9.65;;;13.50;99.90;;;;;;5026510;28;20104;-75
2022/06/15 06:26:11;;;;;;;22.55;10.82;;;13.60;99.90;;;;;;5007848;28;20525;-76
2022/06/15 06:28:45;;;;;;;11.02;7.97;;;13.70;99.90;;;;;;5025133;28;20068;-76
2022/06/15 06:31:11;;;;;;;16.70;7.82;;;13.90;99.90;;;;;;5018329;28;20123;-76
2022/06/15 06:33:40;;;;;;;9.75;7.47;;;14.00;99.90;;;;;;4998052;28;20087;-75
2022/06/15 06:36:37;;;;;;;11.15;7.20;;;14.10;99.90;;;;;;5005534;28;20546;-75
2022/06/15 06:39:14;;;;;;;12.45;6.75;;;14.30;99.90;;;;;;5022350;28;20403;-75
2022/06/15 06:41:44;;;;;;;12.45;7.07;;;14.40;99.90;;;;;;5032808;28;20541;-75
2022/06/15 06:44:11;;;;;;;13.32;6.82;;;14.60;99.90;;;;;;5004705;28;20115;-75
2022/06/15 06:46:40;;;;;;;10.13;6.47;;;14.70;99.90;;;;;;4995974;28;20548;-76
2022/06/15 06:49:06;;;;;;;13.63;7.18;;;14.80;99.90;;;;;;5029859;28;20139;-75
2022/06/15 06:51:35;;;;;;;12.82;7.18;;;14.90;99.90;;;;;;4999552;28;20080;-75
2022/06/15 06:54:04;;;;;;;10.77;6.20;;;15.00;99.90;;;;;;5013758;28;20041;-75
2022/06/15 06:56:29;;;;;;;12.40;6.20;;;15.20;99.90;;;;;;5017421;28;20042;-75
2022/06/15 06:58:58;;;;;;;8.00;5.88;;;15.30;99.90;;;;;;5027013;28;20171;-75
2022/06/15 07:01:24;;;;;;;13.35;6.72;;;15.40;99.90;;;;;;5016286;28;20478;-75
2022/06/15 07:03:56;;;;;;;14.23;7.03;;;15.60;99.90;;;;;;5026820;28;20038;-76
2022/06/15 07:06:22;;;;;;;11.90;6.20;;;15.70;99.90;;;;;;5025047;28;20045;-75
2022/06/15 07:08:51;;;;;;;9.32;6.25;;;15.90;99.90;;;;;;4996945;28;20729;-75
2022/06/15 07:11:17;;;;;;;11.60;6.22;;;16.00;99.90;;;;;;4993382;28;20038;-76
2022/06/15 07:13:45;;;;;;;11.60;6.35;;;16.10;99.90;;;;;;5012064;28;20135;-75
2022/06/15 07:16:16;;;;;;;11.05;5.97;;;16.40;99.90;;;;;;5029164;28;20034;-75
2022/06/15 07:18:44;;;;;;;11.30;5.90;;;16.50;99.90;;;;;;5010489;28;20052;-75
2022/06/15 07:21:15;;;;;;;15.27;6.13;;;16.80;99.90;;;;;;5026436;28;20128;-75
2022/06/15 07:23:48;;;;;;;14.23;5.30;;;17.00;99.90;;;;;;5049444;28;20099;-75
2022/06/15 07:26:20;;;;;;;7.90;5.47;;;17.10;99.90;;;;;;5003659;28;20052;-76
2022/06/15 07:28:49;;;;;;;10.02;4.95;;;17.30;99.90;;;;;;5038595;28;20055;-76
2022/06/15 07:31:24;;;;;;;9.40;5.47;;;17.40;99.90;;;;;;4998430;28;20049;-76
2022/06/15 07:33:52;;;;;;;9.75;4.40;;;17.40;99.90;;;;;;5037730;28;20053;-76
2022/06/15 07:36:20;;;;;;;8.88;4.50;;;17.50;99.90;;;;;;5020708;28;20058;-75
2022/06/15 07:38:48;;;;;;;8.07;4.95;;;17.70;99.90;;;;;;5019223;28;20033;-76
2022/06/15 07:41:17;;;;;;;5.82;3.95;;;17.80;99.90;;;;;;5023335;28;20747;-76
2022/06/15 07:43:43;;;;;;;8.30;4.28;;;18.00;99.90;;;;;;5028985;28;20051;-76
2022/06/15 07:46:09;;;;;;;7.97;4.88;;;18.10;99.90;;;;;;5041053;28;20386;-77
2022/06/15 07:51:39;;;;;;;8.65;3.40;;;18.40;99.90;;;;;;5048881;28;20045;-76
2022/06/15 07:54:09;;;;;;;12.40;3.55;;;18.60;99.90;;;;;;5016643;28;20029;-76
2022/06/15 07:56:37;;;;;;;7.63;3.78;;;18.70;99.90;;;;;;5042618;28;20033;-76
2022/06/15 07:59:12;;;;;;;7.22;3.88;;;18.90;99.90;;;;;;5016762;28;20053;-76
2022/06/15 08:01:47;;;;;;;5.53;3.15;;;19.00;99.90;;;;;;5013078;28;20138;-76
2022/06/15 08:04:14;;;;;;;5.28;2.63;;;19.10;99.90;;;;;;5036325;28;20499;-76
2022/06/15 08:06:43;;;;;;;7.18;2.35;;;19.20;99.90;;;;;;5027728;28;20037;-76
2022/06/15 08:09:13;;;;;;;7.13;2.70;;;19.30;99.90;;;;;;5011503;28;20061;-77
2022/06/15 08:12:11;;;;;;;4.93;2.72;;;19.40;99.90;;;;;;5025086;28;20046;-76
2022/06/15 08:14:31;;;;;;;3.88;2.17;;;19.50;99.90;;;;;;5015268;28;20037;-75
2022/06/15 08:17:01;;;;;;;4.70;2.05;;;19.60;99.90;;;;;;5012973;28;20045;-76
2022/06/15 08:19:30;;;;;;;4.25;2.45;;;19.70;99.90;;;;;;5016928;28;20042;-75
2022/06/15 08:21:56;;;;;;;4.55;2.30;;;19.80;99.90;;;;;;5037021;28;20574;-77
2022/06/15 08:24:24;;;;;;;5.47;2.38;;;20.00;99.30;;;;;;5015062;28;20128;-75
2022/06/15 08:26:50;;;;;;;6.05;2.30;;;20.00;98.50;;;;;;5019082;28;20034;-76
2022/06/15 08:29:17;;;;;;;7.10;2.45;;;19.80;98.30;;;;;;5034578;28;20091;-76
2022/06/15 08:31:43;;;;;;;4.70;2.47;;;19.60;98.40;;;;;;5015284;28;20557;-77
2022/06/15 08:34:12;;;;;;;3.92;2.22;;;19.70;97.80;;;;;;5034292;28;20108;-76
2022/06/15 08:36:38;;;;;;;4.53;2.15;;;19.90;96.90;;;;;;5040032;28;20109;-76
2022/06/15 08:39:07;;;;;;;4.38;2.28;;;20.00;96.80;;;;;;5018892;28;20099;-77
2022/06/15 08:41:35;;;;;;;6.57;2.40;;;20.20;96.80;;;;;;5009266;28;20049;-77
2022/06/15 08:44:18;;;;;;;6.55;2.60;;;20.30;96.80;;;;;;5028633;28;20037;-76
2022/06/15 08:47:32;;;;;;;3.70;2.00;;;20.40;96.10;;;;;;5005276;28;20045;-76
2022/06/15 08:50:19;;;;;;;4.25;2.10;;;20.50;95.00;;;;;;5034344;28;20115;-76
2022/06/15 08:53:05;;;;;;;4.50;2.50;;;20.60;95.90;;;;;;5042225;28;20043;-77
2022/06/15 08:55:38;;;;;;;13.52;3.55;;;20.70;95.90;;;;;;5041417;28;20037;-76
2022/06/15 08:58:36;;;;;;;4.22;2.30;;;20.90;94.70;;;;;;5036070;28;20037;-74
2022/06/15 09:01:30;;;;;;;4.05;2.08;;;21.00;94.50;;;;;;5007161;28;20291;-75
2022/06/15 09:04:11;;;;;;;3.63;2.20;;;21.10;94.00;;;;;;5038199;28;20394;-75
2022/06/15 09:06:57;;;;;;;3.20;1.88;;;21.10;92.40;;;;;;5051461;28;20063;-75
2022/06/15 09:09:49;;;;;;;3.25;1.92;;;21.20;93.20;;;;;;5039393;28;20381;-74
2022/06/15 09:12:53;;;;;;;7.40;2.00;;;21.20;93.40;;;;;;5020484;28;20045;-76
2022/06/15 09:15:38;;;;;;;3.08;1.95;;;21.40;93.50;;;;;;5036443;28;20048;-75
2022/06/15 09:18:20;;;;;;;2.63;1.70;;;21.50;92.40;;;;;;5021416;28;20095;-76
2022/06/15 09:20:52;;;;;;;3.33;2.00;;;21.60;92.80;;;;;;5019974;28;20077;-76
2022/06/15 09:23:29;;;;;;;3.35;1.80;;;21.60;90.80;;;;;;5056259;28;20084;-76
2022/06/15 09:26:28;;;;;;;6.28;2.97;;;21.70;92.00;;;;;;5028107;28;20042;-75
2022/06/15 09:28:59;;;;;;;8.02;2.30;;;21.70;91.40;;;;;;4994473;28;20046;-75
2022/06/15 09:31:32;;;;;;;9.45;2.75;;;21.80;92.10;;;;;;5030255;28;20526;-75
2022/06/15 09:34:25;;;;;;;3.30;2.50;;;21.90;91.70;;;;;;5032664;28;20080;-75
2022/06/15 09:36:56;;;;;;;6.35;2.83;;;22.00;91.50;;;;;;5041627;28;20049;-75
2022/06/15 09:39:24;;;;;;;4.18;2.22;;;22.10;92.00;;;;;;5035379;28;20120;-76
2022/06/15 09:42:26;;;;;;;6.13;2.55;;;22.10;92.00;;;;;;5012474;28;20507;-75
2022/06/15 09:45:11;;;;;;;9.70;2.88;;;22.00;91.50;;;;;;5013342;28;20046;-77
2022/06/15 09:48:03;;;;;;;14.13;3.45;;;22.10;91.20;;;;;;5031617;28;20049;-76
2022/06/15 09:50:40;;;;;;;11.48;3.25;;;21.90;90.80;;;;;;5027877;28;20034;-75
2022/06/15 09:53:06;;;;;;;4.10;2.53;;;21.80;91.50;;;;;;5010962;28;20042;-75
2022/06/15 09:55:51;;;;;;;6.88;2.60;;;21.90;91.80;;;;;;5022503;28;20124;-76
2022/06/15 09:58:20;;;;;;;3.15;2.10;;;22.00;91.10;;;;;;5024041;28;20038;-76
2022/06/15 10:00:49;;;;;;;8.00;3.20;;;22.20;91.60;;;;;;5013981;28;20588;-76
2022/06/15 10:03:28;;;;;;;8.43;3.08;;;22.30;91.30;;;;;;5034017;28;20045;-75
2022/06/15 10:06:24;;;;;;;6.50;2.55;;;22.30;90.90;;;;;;5022128;28;20057;-75
2022/06/15 10:08:55;;;;;;;5.60;2.33;;;22.20;90.20;;;;;;5004241;28;20057;-75
2022/06/15 10:11:41;;;;;;;4.43;2.25;;;22.20;90.10;;;;;;5011492;28;20050;-75
2022/06/15 10:14:22;;;;;;;4.15;2.55;;;22.20;90.80;;;;;;5010618;28;20129;-75
2022/06/15 10:16:57;;;;;;;4.28;2.30;;;22.40;90.70;;;;;;5030832;28;20042;-75
2022/06/15 10:19:24;;;;;;;4.50;2.00;;;22.50;90.20;;;;;;5012545;28;20511;-76
2022/06/15 10:21:59;;;;;;;4.75;2.67;;;22.60;90.50;;;;;;5023326;28;20430;-75
2022/06/15 10:24:36;;;;;;;5.97;2.88;;;22.70;89.70;;;;;;5054826;28;20047;-77
2022/06/15 10:27:35;;;;;;;3.60;2.42;;;22.80;88.70;;;;;;5018854;28;20542;-76
2022/06/15 10:30:35;;;;;;;7.15;2.50;;;22.90;89.40;;;;;;5037690;28;20063;-77
2022/06/15 10:33:21;;;;;;;7.65;2.53;;;23.10;90.10;;;;;;5014723;28;20061;-76
2022/06/15 10:35:58;;;;;;;8.70;2.70;;;23.20;88.10;;;;;;5010905;28;20056;-76
2022/06/15 10:38:26;;;;;;;7.03;2.30;;;23.30;87.30;;;;;;5038147;28;20270;-75
2022/06/15 10:41:45;;;;;;;3.90;2.28;;;23.40;88.40;;;;;;5010594;28;20053;-77
2022/06/15 10:43:49;;;;;;;4.30;2.28;;;23.40;86.80;;;;;;5012092;28;20053;-75
2022/06/15 10:46:21;;;;;;;6.00;2.55;;;23.40;87.60;;;;;;5016810;28;20052;-74
2022/06/15 10:48:52;;;;;;;3.88;2.38;;;23.60;86.70;;;;;;5029145;28;20045;-76
2022/06/15 10:51:39;;;;;;;5.65;2.53;;;23.50;85.60;;;;;;5019804;28;20056;-77
2022/06/15 10:54:17;;;;;;;9.43;2.78;;;23.30;85.80;;;;;;5026299;28;20034;-77
2022/06/15 11:02:42;;;;;;;7.43;2.97;;;23.40;86.40;;;;;;5029192;28;20080;-76
2022/06/15 11:05:08;;;;;;;3.38;1.95;;;23.20;86.30;;;;;;5027567;28;20037;-76
2022/06/15 11:07:45;;;;;;;3.92;2.30;;;23.20;86.70;;;;;;5015562;28;20073;-75
2022/06/15 11:10:19;;;;;;;4.95;2.60;;;23.40;89.20;;;;;;5037192;28;20128;-76
2022/06/15 11:12:57;;;;;;;3.95;2.80;;;23.40;87.00;;;;;;4999801;28;20069;-77
2022/06/15 11:18:39;;;;;;;5.57;2.45;;;23.50;85.60;;;;;;5027175;28;20041;-77
2022/06/15 11:21:23;;;;;;;3.20;2.33;;;23.60;85.10;;;;;;5024770;28;20053;-75
2022/06/15 11:23:55;;;;;;;4.57;2.40;;;23.70;85.90;;;;;;5017756;28;20091;-77
2022/06/15 11:26:53;;;;;;;8.77;2.85;;;23.80;82.90;;;;;;5020012;28;20048;-77
2022/06/15 11:29:52;;;;;;;7.85;2.40;;;23.90;83.80;;;;;;5011120;28;20042;-77
2022/06/15 11:32:39;;;;;;;4.60;2.25;;;23.90;85.20;;;;;;5039137;28;20057;-77
2022/06/15 11:35:14;;;;;;;3.45;2.30;;;23.90;84.30;;;;;;5015135;28;20049;-77
2022/06/15 11:37:58;;;;;;;4.53;2.40;;;24.10;83.30;;;;;;5002068;28;20048;-77
2022/06/15 11:40:40;;;;;;;6.93;2.90;;;24.10;84.60;;;;;;5027962;28;20049;-78
2022/06/15 11:43:17;;;;;;;3.55;2.20;;;24.20;85.20;;;;;;5026943;28;20037;-77
2022/06/15 11:45:57;;;;;;;7.38;3.20;;;24.20;84.00;;;;;;5014654;28;20060;-77
2022/06/15 11:48:35;;;;;;;5.03;2.78;;;24.30;80.20;;;;;;5012786;28;20038;-77
2022/06/15 11:51:39;;;;;;;5.97;2.80;;;24.20;83.40;;;;;;5016613;28;20073;-78
2022/06/15 11:54:23;;;;;;;4.57;2.45;;;24.20;81.20;;;;;;5007938;28;20029;-77
2022/06/15 11:57:06;;;;;;;9.73;3.13;;;24.30;81.90;;;;;;5013334;28;20498;-77
2022/06/15 11:59:49;;;;;;;5.05;2.40;;;24.20;82.90;;;;;;5027216;28;20044;-78
2022/06/15 12:02:24;;;;;;;4.47;2.58;;;24.30;83.50;;;;;;5036451;28;21472;-77
2022/06/15 12:05:09;;;;;;;7.63;2.30;;;24.30;81.60;;;;;;4997666;28;20597;-78
2022/06/15 12:07:47;;;;;;;5.30;2.55;;;24.30;82.10;;;;;;5028311;28;20046;-77
2022/06/15 12:10:39;;;;;;;9.45;2.53;;;24.40;80.50;;;;;;5010758;28;20112;-77
2022/06/15 12:13:25;;;;;;;5.18;2.05;;;24.40;84.10;;;;;;5028950;28;20540;-77
2022/06/15 12:16:11;;;;;;;6.90;2.38;;;24.50;82.90;;;;;;5013660;28;20049;-77
2022/06/15 12:18:54;;;;;;;4.45;2.58;;;24.60;81.10;;;;;;5022846;28;20038;-78
2022/06/15 12:21:33;;;;;;;5.65;2.50;;;24.70;81.60;;;;;;5010600;28;20115;-76
2022/06/15 12:24:07;;;;;;;6.03;2.67;;;24.70;80.40;;;;;;5014354;28;20050;-78
2022/06/15 12:26:39;;;;;;;5.38;2.80;;;24.60;80.50;;;;;;5012499;28;20857;-77
2022/06/15 12:29:25;;;;;;;4.70;2.80;;;24.70;80.10;;;;;;5011288;28;20046;-78
2022/06/15 12:32:36;;;;;;;3.83;2.17;;;24.50;79.20;;;;;;5017410;28;20057;-78
2022/06/15 12:35:14;;;;;;;4.68;2.60;;;24.40;77.70;;;;;;5012169;28;20128;-77
2022/06/15 12:37:43;;;;;;;4.95;2.60;;;24.30;79.90;;;;;;5027638;28;20041;-77
2022/06/15 12:40:29;;;;;;;9.90;2.58;;;24.40;80.30;;;;;;5010308;28;20049;-77
2022/06/15 12:43:01;;;;;;;3.85;2.20;;;24.50;78.90;;;;;;5021075;28;20057;-77
2022/06/15 12:45:33;;;;;;;7.20;2.75;;;24.50;80.40;;;;;;5032529;28;20495;-77
2022/06/15 12:48:03;;;;;;;4.22;2.50;;;24.40;78.10;;;;;;5020508;28;20495;-77
2022/06/15 12:50:32;;;;;;;5.60;2.47;;;24.60;78.40;;;;;;5016163;28;20053;-77
2022/06/15 12:53:26;;;;;;;4.55;2.53;;;24.70;80.80;;;;;;5029591;28;20523;-78
2022/06/15 12:56:00;;;;;;;4.18;2.42;;;24.70;79.70;;;;;;5019842;28;20042;-76
2022/06/15 12:58:51;;;;;;;5.78;2.85;;;24.60;77.80;;;;;;5024030;28;20034;-77
2022/06/15 13:01:23;;;;;;;3.90;2.50;;;24.70;78.00;;;;;;5033792;28;20325;-76
2022/06/15 13:03:51;;;;;;;5.30;2.60;;;24.70;78.00;;;;;;5032557;28;20046;-77
2022/06/15 13:06:30;;;;;;;4.25;2.75;;;24.80;77.00;;;;;;5017390;28;20049;-76
2022/06/15 13:09:20;;;;;;;4.80;2.10;;;24.70;77.00;;;;;;5033230;28;20045;-77
2022/06/15 13:11:51;;;;;;;3.88;2.25;;;24.70;77.50;;;;;;5016411;28;20045;-76
2022/06/15 13:14:24;;;;;;;5.93;2.53;;;24.90;80.20;;;;;;5005334;28;20033;-77
2022/06/15 13:17:02;;;;;;;6.63;2.30;;;24.90;77.00;;;;;;5019848;28;20790;-77
2022/06/15 13:19:35;;;;;;;4.65;2.72;;;24.70;78.30;;;;;;4995575;28;20045;-76
2022/06/15 13:22:15;;;;;;;3.65;2.55;;;24.70;77.80;;;;;;5021280;28;20045;-76
2022/06/15 13:24:56;;;;;;;5.75;2.53;;;24.80;78.80;;;;;;5027270;28;20072;-77
2022/06/15 13:27:37;;;;;;;4.40;2.30;;;24.90;81.50;;;;;;5027670;28;20049;-77
2022/06/15 13:30:18;;;;;;;4.28;2.13;;;25.10;79.70;;;;;;5034652;28;20042;-76
2022/06/15 13:32:50;;;;;;;6.60;2.38;;;25.00;77.00;;;;;;5034476;28;20042;-76